Time;durP1;ratioP1;P1;durP2;ratioP2;P2;SDS_P1;SDS_P2;PMS_P1;PMS_P2;Temp;Humidity;BMP_temperature;BMP_pressure;BME280_temperature;BME280_humidity;BME280_pressure;Samples;Min_cycle;Max_cycle;Signal;HPM_P1;HPM_P2
2023/04/02 00:01:18;;;;;;;30.00;19.40;;;;;;;7.65;100.00;97700.52;131651;1286;24227;-77
2023/04/02 00:04:25;;;;;;;25.30;17.50;;;;;;;7.66;100.00;97699.80;131719;1287;25357;-76
2023/04/02 00:07:32;;;;;;;24.10;16.90;;;;;;;7.65;100.00;97701.64;132323;1287;22583;-77
2023/04/02 00:10:35;;;;;;;22.60;15.50;;;;;;;7.64;100.00;97706.81;132314;1264;22610;-77
2023/04/02 00:13:38;;;;;;;24.60;16.10;;;;;;;7.66;100.00;97708.63;131795;1286;22554;-76
2023/04/02 00:16:41;;;;;;;20.80;14.50;;;;;;;7.70;100.00;97711.08;131870;1287;22676;-76
2023/04/02 00:19:44;;;;;;;21.70;15.60;;;;;;;7.74;100.00;97712.95;131767;1286;22652;-78
2023/04/02 00:22:47;;;;;;;20.30;14.50;;;;;;;7.78;100.00;97720.55;131740;1287;24186;-76
2023/04/02 00:25:49;;;;;;;21.50;15.30;;;;;;;7.78;100.00;97726.84;131702;1287;24308;-75
2023/04/02 00:28:52;;;;;;;23.40;15.70;;;;;;;7.81;100.00;97732.16;131647;1287;24337;-77
2023/04/02 00:31:55;;;;;;;25.90;16.70;;;;;;;7.85;100.00;97733.79;131683;1287;22593;-76
2023/04/02 00:34:57;;;;;;;22.80;16.20;;;;;;;7.85;100.00;97730.63;131689;1287;25431;-76
2023/04/02 00:38:00;;;;;;;25.90;18.20;;;;;;;7.87;100.00;97733.70;131725;1287;25233;-76
2023/04/02 00:41:03;;;;;;;23.40;16.00;;;;;;;7.90;100.00;97734.54;131702;1287;22534;-76
2023/04/02 00:44:05;;;;;;;23.60;16.70;;;;;;;7.92;100.00;97733.02;131795;1287;25788;-77
2023/04/02 00:47:08;;;;;;;25.10;15.20;;;;;;;7.94;100.00;97735.92;131634;1287;25404;-77
2023/04/02 00:50:11;;;;;;;23.50;16.00;;;;;;;7.93;100.00;97734.67;131701;1276;26388;-77
2023/04/02 00:53:14;;;;;;;20.70;14.50;;;;;;;7.88;100.00;97735.31;131774;1287;22544;-76
2023/04/02 00:56:17;;;;;;;21.30;15.20;;;;;;;7.81;100.00;97738.73;131693;1287;24272;-77
2023/04/02 00:59:20;;;;;;;23.80;16.60;;;;;;;7.79;100.00;97741.61;131710;1287;25236;-77
2023/04/02 01:02:25;;;;;;;22.10;15.60;;;;;;;7.76;100.00;97740.40;131695;1287;24206;-76
2023/04/02 01:05:27;;;;;;;21.80;15.30;;;;;;;7.74;100.00;97741.41;131687;1287;25416;-77
2023/04/02 01:08:32;;;;;;;20.40;15.70;;;;;;;7.72;100.00;97736.64;131656;1287;22530;-77
2023/04/02 01:11:35;;;;;;;22.30;15.30;;;;;;;7.70;100.00;97738.39;131716;1287;25194;-78
2023/04/02 01:14:38;;;;;;;21.40;15.10;;;;;;;7.68;100.00;97738.98;131719;1287;24210;-76
2023/04/02 01:17:42;;;;;;;23.80;16.20;;;;;;;7.68;100.00;97737.39;131700;1287;22663;-76
2023/04/02 01:20:45;;;;;;;20.40;15.60;;;;;;;7.66;100.00;97739.85;131685;1287;25572;-77
2023/04/02 01:23:48;;;;;;;22.10;16.60;;;;;;;7.67;100.00;97744.66;131661;1287;22543;-77
2023/04/02 01:26:51;;;;;;;23.00;17.10;;;;;;;7.70;100.00;97749.52;131633;1287;25488;-78
2023/04/02 01:29:55;;;;;;;25.00;16.90;;;;;;;7.70;100.00;97752.66;131636;1287;25489;-77
2023/04/02 01:32:58;;;;;;;23.10;15.70;;;;;;;7.68;100.00;97754.98;131868;1287;22583;-76
2023/04/02 01:36:01;;;;;;;25.40;16.10;;;;;;;7.63;100.00;97759.23;131691;1287;22540;-77
2023/04/02 01:39:04;;;;;;;24.30;16.40;;;;;;;7.59;100.00;97760.50;131662;1287;24199;-78
2023/04/02 01:42:08;;;;;;;27.90;17.30;;;;;;;7.59;100.00;97765.96;131669;1287;24343;-77
2023/04/02 01:45:11;;;;;;;25.10;17.20;;;;;;;7.54;100.00;97769.47;131644;1287;22540;-77
2023/04/02 01:48:13;;;;;;;27.00;18.20;;;;;;;7.48;100.00;97775.40;131690;1287;24344;-77
2023/04/02 01:51:16;;;;;;;31.70;19.30;;;;;;;7.41;100.00;97773.77;131670;1264;25612;-76
2023/04/02 01:54:19;;;;;;;30.10;19.00;;;;;;;7.37;100.00;97776.59;131676;1287;22555;-77
2023/04/02 01:57:22;;;;;;;30.50;20.10;;;;;;;7.32;100.00;97775.61;131681;1272;24237;-77
2023/04/02 02:00:25;;;;;;;26.20;16.90;;;;;;;7.28;100.00;97773.20;131666;1287;22531;-78
2023/04/02 02:03:28;;;;;;;29.20;19.20;;;;;;;7.25;100.00;97777.65;131653;1287;24230;-78
2023/04/02 02:06:31;;;;;;;32.90;21.00;;;;;;;7.22;100.00;97777.67;131638;1287;25504;-76
2023/04/02 02:09:34;;;;;;;29.60;19.40;;;;;;;7.19;100.00;97777.13;131681;1287;22741;-77
2023/04/02 02:12:37;;;;;;;30.20;20.20;;;;;;;7.19;100.00;97781.61;131656;1287;22556;-77
2023/04/02 02:15:40;;;;;;;30.80;19.10;;;;;;;7.19;100.00;97778.00;131677;1287;25403;-77
2023/04/02 02:18:43;;;;;;;27.70;18.30;;;;;;;7.17;100.00;97780.19;131686;1287;22543;-77
2023/04/02 02:21:46;;;;;;;30.40;19.00;;;;;;;7.15;100.00;97780.73;131663;1287;24351;-77
2023/04/02 02:24:49;;;;;;;30.90;19.70;;;;;;;7.11;100.00;97783.00;131617;1287;24273;-75
2023/04/02 02:27:52;;;;;;;26.20;18.00;;;;;;;7.10;100.00;97784.18;131798;1287;22541;-76
2023/04/02 02:30:55;;;;;;;25.70;17.90;;;;;;;7.12;100.00;97786.27;131649;1287;22549;-75
2023/04/02 02:33:58;;;;;;;25.80;18.50;;;;;;;7.14;100.00;97788.13;131488;1287;247622;-76
2023/04/02 02:37:01;;;;;;;24.50;15.60;;;;;;;7.15;100.00;97789.94;131736;1287;22615;-75
2023/04/02 02:40:04;;;;;;;20.20;14.50;;;;;;;7.16;100.00;97792.92;131776;1287;23880;-76
2023/04/02 02:43:07;;;;;;;23.60;15.30;;;;;;;7.17;100.00;97795.25;131662;1287;24224;-76
2023/04/02 02:46:10;;;;;;;23.60;15.00;;;;;;;7.17;100.00;97795.97;131679;1287;24243;-77
2023/04/02 02:49:13;;;;;;;18.80;14.20;;;;;;;7.16;100.00;97804.09;131606;1287;22549;-76
2023/04/02 02:52:16;;;;;;;19.00;14.30;;;;;;;7.17;100.00;97804.66;131648;1287;24391;-76
2023/04/02 02:55:18;;;;;;;20.20;14.80;;;;;;;7.18;100.00;97808.11;131605;1287;22534;-76
2023/04/02 02:58:22;;;;;;;19.00;13.50;;;;;;;7.13;100.00;97808.49;131670;1287;23238;-77
2023/04/02 03:01:26;;;;;;;18.40;12.60;;;;;;;7.10;100.00;97814.26;131707;1287;22543;-76
2023/04/02 03:04:29;;;;;;;16.30;11.80;;;;;;;7.05;100.00;97818.96;131719;1287;22600;-77
2023/04/02 03:07:32;;;;;;;16.60;12.00;;;;;;;7.02;100.00;97822.70;131755;1287;24493;-77
2023/04/02 03:10:35;;;;;;;16.10;12.20;;;;;;;6.99;100.00;97826.36;131681;1287;22545;-75
2023/04/02 03:13:38;;;;;;;22.50;15.40;;;;;;;6.95;100.00;97827.16;131673;1287;26505;-75
2023/04/02 03:16:41;;;;;;;19.60;14.10;;;;;;;6.90;100.00;97830.30;131692;1287;22550;-77
2023/04/02 03:19:43;;;;;;;15.00;11.90;;;;;;;6.87;100.00;97828.98;131783;1287;24231;-76
2023/04/02 03:22:46;;;;;;;15.30;11.50;;;;;;;6.84;100.00;97827.13;131766;1287;22585;-76
2023/04/02 03:25:49;;;;;;;17.60;13.10;;;;;;;6.83;100.00;97832.99;131536;1287;22558;-76
2023/04/02 03:28:52;;;;;;;16.00;11.90;;;;;;;6.82;100.00;97835.87;131717;1287;22734;-76
2023/04/02 03:31:55;;;;;;;19.60;12.40;;;;;;;6.83;100.00;97839.77;131689;1287;22717;-75
2023/04/02 03:34:58;;;;;;;17.20;13.30;;;;;;;6.82;100.00;97842.18;131621;1287;25495;-76
2023/04/02 03:38:01;;;;;;;15.00;12.10;;;;;;;6.79;100.00;97841.60;131643;1287;22632;-75
2023/04/02 03:41:04;;;;;;;11.90;9.70;;;;;;;6.76;100.00;97844.55;131657;1287;22540;-75
2023/04/02 03:44:07;;;;;;;9.10;7.20;;;;;;;6.68;100.00;97852.58;131735;1287;22601;-76
2023/04/02 03:47:10;;;;;;;11.30;8.20;;;;;;;6.58;100.00;97852.38;131723;1287;24235;-77
2023/04/02 03:50:13;;;;;;;9.60;8.10;;;;;;;6.52;100.00;97850.08;131962;1287;25342;-76
2023/04/02 03:53:15;;;;;;;11.20;8.70;;;;;;;6.53;100.00;97858.01;132502;1287;22530;-77
2023/04/02 03:56:18;;;;;;;9.40;8.40;;;;;;;6.49;100.00;97857.88;131889;1287;22534;-76
2023/04/02 03:59:21;;;;;;;10.90;9.20;;;;;;;6.46;100.00;97866.34;131882;1287;23634;-76
2023/04/02 04:02:24;;;;;;;10.70;8.80;;;;;;;6.45;100.00;97870.75;131837;1280;22549;-76
2023/04/02 04:05:27;;;;;;;9.30;6.80;;;;;;;6.41;100.00;97869.06;131736;1287;25214;-76
2023/04/02 04:08:30;;;;;;;10.70;7.60;;;;;;;6.35;100.00;97874.98;131809;1287;22568;-78
2023/04/02 04:11:32;;;;;;;11.00;8.70;;;;;;;6.28;100.00;97873.82;131725;1275;22653;-76
2023/04/02 04:14:36;;;;;;;14.30;9.90;;;;;;;6.25;100.00;97876.73;131710;1287;22562;-76
2023/04/02 04:17:39;;;;;;;13.50;9.70;;;;;;;6.24;100.00;97878.11;131688;1287;25339;-76
2023/04/02 04:20:44;;;;;;;11.70;8.90;;;;;;;6.24;100.00;97879.43;131627;1287;25319;-76
2023/04/02 04:23:49;;;;;;;10.60;6.90;;;;;;;6.26;100.00;97891.34;131675;1287;23063;-76
2023/04/02 04:26:52;;;;;;;11.90;8.80;;;;;;;6.24;100.00;97894.42;131674;1287;22537;-76
2023/04/02 04:29:55;;;;;;;12.90;8.60;;;;;;;6.22;100.00;97896.87;131659;1287;25489;-75
2023/04/02 04:33:00;;;;;;;10.20;7.50;;;;;;;6.21;100.00;97905.94;131667;1287;22552;-76
2023/04/02 04:36:03;;;;;;;11.20;8.80;;;;;;;6.19;100.00;97919.52;131660;1287;23843;-76
2023/04/02 04:39:06;;;;;;;9.10;7.90;;;;;;;6.19;100.00;97917.52;131666;1287;24270;-77
2023/04/02 04:42:09;;;;;;;12.90;10.00;;;;;;;6.18;100.00;97918.98;131701;1287;22533;-77
2023/04/02 04:45:12;;;;;;;11.90;9.80;;;;;;;6.19;100.00;97920.95;131637;1287;22794;-77
2023/04/02 04:48:15;;;;;;;13.20;10.50;;;;;;;6.20;100.00;97926.20;131704;1287;22656;-77
2023/04/02 04:51:17;;;;;;;15.50;11.10;;;;;;;6.21;100.00;97927.08;131676;1287;24243;-77
2023/04/02 04:54:20;;;;;;;15.10;11.20;;;;;;;6.23;100.00;97931.23;131595;1287;23914;-76
2023/04/02 04:57:23;;;;;;;14.70;11.30;;;;;;;6.21;100.00;97930.95;131671;1287;22585;-77
2023/04/02 05:00:26;;;;;;;14.80;11.50;;;;;;;6.17;100.00;97933.25;131651;1287;22543;-77
2023/04/02 05:03:29;;;;;;;15.30;13.20;;;;;;;6.13;100.00;97936.52;131675;1287;25300;-77
2023/04/02 05:06:32;;;;;;;16.80;12.50;;;;;;;6.07;100.00;97947.05;131665;1287;22556;-76
2023/04/02 05:09:35;;;;;;;18.20;12.50;;;;;;;6.01;100.00;97949.79;131717;1287;25573;-76
2023/04/02 05:12:38;;;;;;;14.30;11.70;;;;;;;5.97;100.00;97950.37;131687;1287;24350;-77
2023/04/02 05:15:41;;;;;;;15.90;12.10;;;;;;;5.95;100.00;97952.52;131694;1287;22549;-76
2023/04/02 05:18:43;;;;;;;14.70;12.30;;;;;;;5.93;100.00;97957.05;131680;1287;24468;-77
2023/04/02 05:21:46;;;;;;;15.80;11.60;;;;;;;5.93;100.00;97957.03;131674;1287;22614;-77
2023/04/02 05:24:49;;;;;;;12.70;11.30;;;;;;;5.92;100.00;97962.08;131654;1287;22552;-77
2023/04/02 05:27:52;;;;;;;13.00;11.50;;;;;;;5.87;100.00;97968.63;131689;1287;26689;-77
2023/04/02 05:30:55;;;;;;;12.50;10.20;;;;;;;5.86;100.00;97966.49;131715;1287;24411;-76
2023/04/02 05:33:58;;;;;;;12.90;11.10;;;;;;;5.83;100.00;97973.12;131744;1287;22634;-76
2023/04/02 05:37:01;;;;;;;9.60;8.60;;;;;;;5.82;100.00;97979.42;131661;1287;23950;-76
2023/04/02 05:40:05;;;;;;;8.50;7.60;;;;;;;5.80;100.00;97982.52;131795;1287;24231;-76
2023/04/02 05:43:08;;;;;;;9.10;7.40;;;;;;;5.81;100.00;97993.75;131856;1287;25281;-76
2023/04/02 05:46:11;;;;;;;10.00;8.80;;;;;;;5.79;100.00;97994.44;131617;1287;22550;-75
2023/04/02 05:49:13;;;;;;;9.10;7.70;;;;;;;5.76;100.00;97995.31;131726;1287;24299;-76
2023/04/02 05:52:16;;;;;;;14.10;7.80;;;;;;;5.69;100.00;98000.17;131805;1287;22540;-75
2023/04/02 05:55:19;;;;;;;8.60;5.50;;;;;;;5.64;100.00;98002.52;131715;1287;25469;-74
2023/04/02 05:58:22;;;;;;;7.20;5.70;;;;;;;5.55;100.00;98007.23;131709;1287;26626;-75
2023/04/02 06:01:25;;;;;;;7.40;6.00;;;;;;;5.51;100.00;98012.25;131770;1287;22537;-75
2023/04/02 06:04:28;;;;;;;8.10;7.30;;;;;;;5.50;100.00;98016.15;131667;1287;22544;-76
2023/04/02 06:07:31;;;;;;;8.90;7.30;;;;;;;5.50;100.00;98017.64;131661;1287;22545;-77
2023/04/02 06:10:34;;;;;;;13.30;9.40;;;;;;;5.52;100.00;98021.11;131717;1287;22664;-75
2023/04/02 06:13:37;;;;;;;6.90;6.30;;;;;;;5.55;100.00;98023.88;131664;1287;22653;-76
2023/04/02 06:16:39;;;;;;;7.40;6.60;;;;;;;5.56;100.00;98026.58;131653;1287;23204;-76
2023/04/02 06:19:42;;;;;;;5.50;5.10;;;;;;;5.57;100.00;98034.59;131642;1287;22538;-75
2023/04/02 06:22:45;;;;;;;6.50;5.90;;;;;;;5.58;100.00;98039.80;131592;1287;22546;-75
2023/04/02 06:25:48;;;;;;;7.60;6.70;;;;;;;5.59;100.00;98043.89;131659;1287;22654;-76
2023/04/02 06:28:51;;;;;;;5.90;5.30;;;;;;;5.60;100.00;98047.07;131630;1287;24247;-75
2023/04/02 06:31:54;;;;;;;7.20;6.40;;;;;;;5.61;100.00;98053.77;131669;1287;24069;-76
2023/04/02 06:34:57;;;;;;;4.70;4.30;;;;;;;5.61;100.00;98065.15;131652;1276;22544;-76
2023/04/02 06:38:00;;;;;;;4.20;3.80;;;;;;;5.60;100.00;98067.46;131655;1287;25459;-76
2023/04/02 06:41:02;;;;;;;4.60;3.80;;;;;;;5.58;100.00;98066.81;131666;1287;24265;-75
2023/04/02 06:44:05;;;;;;;4.70;4.30;;;;;;;5.58;100.00;98073.60;131697;1287;22600;-76
2023/04/02 06:47:08;;;;;;;3.90;3.60;;;;;;;5.55;100.00;98076.14;131632;1287;22550;-77
2023/04/02 06:50:11;;;;;;;4.70;4.30;;;;;;;5.53;100.00;98084.89;131643;1287;24217;-76
2023/04/02 06:53:14;;;;;;;4.90;4.40;;;;;;;5.47;100.00;98089.30;131640;1287;22747;-76
2023/04/02 06:56:16;;;;;;;3.20;3.00;;;;;;;5.42;100.00;98095.02;131705;1287;22550;-75
2023/04/02 06:59:19;;;;;;;3.20;2.90;;;;;;;5.42;100.00;98097.77;131699;1287;25406;-76
2023/04/02 07:02:22;;;;;;;3.30;3.00;;;;;;;5.48;100.00;98104.23;131631;1287;24383;-76
2023/04/02 07:05:25;;;;;;;3.20;2.90;;;;;;;5.57;100.00;98105.07;131676;1287;22700;-76
2023/04/02 07:08:28;;;;;;;4.20;3.80;;;;;;;5.65;100.00;98114.52;131726;1287;23269;-76
2023/04/02 07:11:31;;;;;;;5.10;4.50;;;;;;;5.70;100.00;98119.20;131677;1287;22650;-74
2023/04/02 07:14:34;;;;;;;7.50;5.50;;;;;;;5.76;100.00;98118.48;131632;1287;22560;-75
2023/04/02 07:17:36;;;;;;;4.40;3.90;;;;;;;5.78;100.00;98120.80;131650;1287;23284;-76
2023/04/02 07:20:40;;;;;;;4.00;3.70;;;;;;;5.79;100.00;98123.98;131706;1287;24234;-76
2023/04/02 07:23:43;;;;;;;3.20;3.00;;;;;;;5.82;100.00;98133.96;131592;1287;22659;-77
2023/04/02 07:26:47;;;;;;;3.60;3.30;;;;;;;5.79;100.00;98133.03;131791;1287;23929;-76
2023/04/02 07:29:50;;;;;;;3.50;2.90;;;;;;;5.72;100.00;98139.14;131785;1287;22550;-77
2023/04/02 07:32:53;;;;;;;3.00;2.70;;;;;;;5.66;100.00;98139.43;131947;1287;22564;-76
2023/04/02 07:35:56;;;;;;;5.40;4.90;;;;;;;5.61;100.00;98145.98;132209;1287;24301;-77
2023/04/02 07:38:59;;;;;;;4.30;3.90;;;;;;;5.57;100.00;98145.52;132189;1287;22698;-77
2023/04/02 07:42:02;;;;;;;3.00;2.80;;;;;;;5.60;100.00;98155.60;131934;1287;22551;-77
2023/04/02 07:45:08;;;;;;;3.30;3.10;;;;;;;5.63;100.00;98157.21;132069;1287;22543;-77
2023/04/02 07:48:11;;;;;;;3.10;2.90;;;;;;;5.69;100.00;98158.16;132292;1264;22770;-77
2023/04/02 07:51:13;;;;;;;4.00;3.10;;;;;;;5.79;100.00;98164.34;132194;1287;22577;-78
2023/04/02 07:54:16;;;;;;;2.50;2.30;;;;;;;5.90;100.00;98175.36;131966;1287;25404;-77
2023/04/02 07:57:19;;;;;;;3.80;3.00;;;;;;;5.92;100.00;98166.92;132028;1287;23897;-77
2023/04/02 08:00:22;;;;;;;3.10;2.80;;;;;;;5.98;100.00;98170.34;132071;1287;22544;-77
2023/04/02 08:03:25;;;;;;;2.90;2.50;;;;;;;5.99;100.00;98175.73;131943;1287;22563;-77
2023/04/02 08:06:28;;;;;;;3.60;2.80;;;;;;;6.05;100.00;98181.90;131993;1287;25428;-77
2023/04/02 08:09:31;;;;;;;3.20;3.00;;;;;;;6.12;100.00;98189.14;131852;1287;24742;-76
2023/04/02 08:12:34;;;;;;;4.90;3.50;;;;;;;6.15;100.00;98194.48;131798;1287;24468;-76
2023/04/02 08:15:37;;;;;;;3.40;3.10;;;;;;;6.18;100.00;98200.89;131786;1283;23896;-75
2023/04/02 08:18:40;;;;;;;2.50;2.40;;;;;;;6.28;100.00;98201.71;131749;1287;22562;-75
2023/04/02 08:21:42;;;;;;;3.40;3.10;;;;;;;6.40;100.00;98204.25;131754;1287;22619;-75
2023/04/02 08:24:45;;;;;;;3.80;3.20;;;;;;;6.41;100.00;98206.66;131660;1287;23295;-76
2023/04/02 08:27:48;;;;;;;3.00;2.70;;;;;;;6.41;100.00;98218.36;131699;1287;24262;-76
2023/04/02 08:30:51;;;;;;;3.10;2.80;;;;;;;6.37;100.00;98216.73;131663;1287;22535;-76
2023/04/02 08:33:55;;;;;;;3.40;3.10;;;;;;;6.29;100.00;98224.73;131651;1287;24235;-76
2023/04/02 08:36:58;;;;;;;2.70;2.50;;;;;;;6.17;100.00;98231.57;131695;1287;22543;-77
2023/04/02 08:40:02;;;;;;;2.80;2.50;;;;;;;6.03;100.00;98236.55;131680;1287;22534;-76
2023/04/02 08:43:05;;;;;;;3.10;2.90;;;;;;;5.82;100.00;98236.77;131713;1287;25389;-76
2023/04/02 08:46:09;;;;;;;2.80;2.60;;;;;;;5.71;100.00;98238.34;131713;1287;24235;-77
2023/04/02 08:49:12;;;;;;;3.00;2.80;;;;;;;5.58;100.00;98243.41;131681;1287;22537;-77
2023/04/02 08:52:16;;;;;;;2.70;2.50;;;;;;;5.48;100.00;98247.09;131624;1287;25045;-76
2023/04/02 08:55:24;;;;;;;2.70;2.50;;;;;;;5.35;100.00;98255.13;131680;1287;25246;-77
2023/04/02 08:58:35;;;;;;;2.90;2.10;;;;;;;5.26;100.00;98260.58;131574;1287;22592;-77
2023/04/02 09:01:38;;;;;;;2.10;2.00;;;;;;;5.16;100.00;98266.48;131643;1287;25278;-77
2023/04/02 09:04:42;;;;;;;2.10;2.00;;;;;;;5.09;100.00;98271.27;131556;1289;24044;-76
2023/04/02 09:07:47;;;;;;;1.60;1.50;;;;;;;5.01;100.00;98276.27;131539;1289;24212;-76
2023/04/02 09:10:50;;;;;;;1.40;1.40;;;;;;;4.92;100.00;98279.14;131565;1289;24378;-76
2023/04/02 09:13:55;;;;;;;1.60;1.50;;;;;;;4.83;100.00;98281.42;131500;1289;25281;-76
2023/04/02 09:16:57;;;;;;;1.40;1.30;;;;;;;4.80;100.00;98287.44;131568;1289;22618;-77
2023/04/02 09:20:00;;;;;;;2.30;2.10;;;;;;;4.78;100.00;98291.58;131538;1267;22553;-77
2023/04/02 09:23:03;;;;;;;4.20;3.80;;;;;;;4.81;100.00;98292.30;131628;1287;25294;-77
2023/04/02 09:26:06;;;;;;;6.50;5.20;;;;;;;4.88;100.00;98297.91;131720;1287;22613;-76
2023/04/02 09:29:10;;;;;;;4.90;4.50;;;;;;;4.90;100.00;98300.59;131784;1287;22548;-77
2023/04/02 09:32:13;;;;;;;3.60;3.30;;;;;;;4.93;100.00;98313.45;131674;1287;22663;-76
2023/04/02 09:35:15;;;;;;;5.00;4.30;;;;;;;4.92;100.00;98320.64;131650;1287;24265;-75
2023/04/02 09:38:18;;;;;;;4.00;3.50;;;;;;;4.95;100.00;98324.89;131675;1287;25236;-74
2023/04/02 09:41:21;;;;;;;3.20;2.90;;;;;;;4.97;100.00;98334.38;131666;1287;24043;-76
2023/04/02 09:44:24;;;;;;;3.50;3.30;;;;;;;4.95;100.00;98334.89;131648;1287;22557;-75
2023/04/02 09:47:27;;;;;;;4.20;2.30;;;;;;;4.93;100.00;98340.63;131666;1287;24231;-75
2023/04/02 09:50:30;;;;;;;2.60;2.40;;;;;;;4.92;100.00;98339.30;131647;1287;25455;-77
2023/04/02 09:53:33;;;;;;;2.70;2.40;;;;;;;4.95;100.00;98344.04;131661;1287;22692;-77
2023/04/02 09:56:36;;;;;;;2.80;2.60;;;;;;;5.00;100.00;98346.94;131651;1287;23893;-78
2023/04/02 09:59:38;;;;;;;2.20;2.00;;;;;;;5.05;100.00;98355.96;131689;1287;22773;-74
2023/04/02 10:02:41;;;;;;;5.70;4.30;;;;;;;5.06;100.00;98353.64;131685;1287;22696;-76
2023/04/02 10:05:45;;;;;;;4.10;3.50;;;;;;;5.07;100.00;98359.61;131721;1287;25285;-76
2023/04/02 10:08:48;;;;;;;9.10;5.60;;;;;;;5.08;100.00;98358.79;131687;1287;22534;-77
2023/04/02 10:11:50;;;;;;;4.10;3.80;;;;;;;5.14;100.00;98362.89;131656;1287;22543;-76
2023/04/02 10:14:53;;;;;;;3.10;2.90;;;;;;;5.15;100.00;98367.44;131708;1287;22570;-77
2023/04/02 10:17:56;;;;;;;4.60;4.20;;;;;;;5.07;100.00;98369.63;131720;1287;22654;-77
2023/04/02 10:20:59;;;;;;;4.80;3.70;;;;;;;5.02;100.00;98375.87;131726;1287;26700;-76
2023/04/02 10:24:02;;;;;;;5.10;4.60;;;;;;;4.97;100.00;98382.58;131753;1287;24277;-78
2023/04/02 10:27:05;;;;;;;5.30;4.80;;;;;;;4.96;100.00;98391.65;131809;1287;22556;-76
2023/04/02 10:30:08;;;;;;;5.00;4.50;;;;;;;4.95;100.00;98394.54;131728;1287;22541;-76
2023/04/02 10:33:11;;;;;;;3.50;3.20;;;;;;;4.93;100.00;98396.15;131703;1287;22551;-76
2023/04/02 10:36:14;;;;;;;5.30;4.80;;;;;;;4.91;100.00;98393.54;131633;1287;23431;-78
2023/04/02 10:39:19;;;;;;;3.00;2.90;;;;;;;4.90;100.00;98395.39;131673;1287;24237;-78
2023/04/02 10:42:22;;;;;;;5.20;4.60;;;;;;;4.86;100.00;98402.54;131658;1287;24049;-77
2023/04/02 10:45:25;;;;;;;3.40;3.10;;;;;;;4.82;100.00;98409.25;131618;1287;22621;-76
2023/04/02 10:48:28;;;;;;;2.60;2.40;;;;;;;4.79;100.00;98409.23;131642;1287;24286;-76
2023/04/02 10:51:31;;;;;;;2.60;2.20;;;;;;;4.78;100.00;98414.02;131649;1287;22547;-76
2023/04/02 10:54:33;;;;;;;2.40;2.30;;;;;;;4.79;100.00;98418.60;131709;1287;22977;-77
2023/04/02 10:57:36;;;;;;;2.10;2.00;;;;;;;4.75;100.00;98421.79;131759;1287;24209;-76
2023/04/02 11:00:41;;;;;;;2.60;2.50;;;;;;;4.71;100.00;98423.70;131643;1287;25353;-78
2023/04/02 11:03:44;;;;;;;2.90;2.80;;;;;;;4.71;100.00;98424.23;131667;1287;22644;-76
2023/04/02 11:06:47;;;;;;;3.30;3.10;;;;;;;4.71;100.00;98424.20;131704;1287;22634;-77
2023/04/02 11:09:50;;;;;;;2.70;2.50;;;;;;;4.68;100.00;98432.09;131786;1287;22790;-76
2023/04/02 11:12:53;;;;;;;3.00;2.70;;;;;;;4.67;100.00;98441.24;132019;1276;24244;-75
2023/04/02 11:15:56;;;;;;;2.90;2.70;;;;;;;4.67;100.00;98442.75;132556;1287;25412;-77
2023/04/02 11:18:59;;;;;;;2.80;2.60;;;;;;;4.72;100.00;98445.54;131935;1287;23135;-79
2023/04/02 11:22:09;;;;;;;4.20;3.90;;;;;;;4.77;100.00;98451.27;131944;1287;22541;-78
2023/04/02 11:25:12;;;;;;;3.30;3.10;;;;;;;4.83;100.00;98453.80;131706;1287;25016;-77
2023/04/02 11:28:17;;;;;;;2.90;2.30;;;;;;;4.85;100.00;98457.89;131878;1287;22537;-77
2023/04/02 11:31:20;;;;;;;2.80;2.70;;;;;;;4.82;100.00;98458.86;131775;1287;24085;-75
2023/04/02 11:34:23;;;;;;;3.20;2.90;;;;;;;4.87;100.00;98462.66;131722;1287;22790;-76
2023/04/02 11:37:25;;;;;;;3.00;2.80;;;;;;;4.87;100.00;98467.98;131645;1287;25382;-76
2023/04/02 11:40:28;;;;;;;3.70;3.50;;;;;;;4.83;100.00;98468.20;131652;1287;24202;-74
2023/04/02 11:43:31;;;;;;;3.10;2.90;;;;;;;4.84;100.00;98469.09;131730;1287;22526;-76
2023/04/02 11:46:35;;;;;;;3.80;3.50;;;;;;;4.84;100.00;98472.40;131843;1287;22544;-76
2023/04/02 11:49:38;;;;;;;3.60;3.40;;;;;;;4.85;100.00;98480.39;131738;1287;24240;-75
2023/04/02 11:52:41;;;;;;;3.40;3.20;;;;;;;4.90;100.00;98482.40;131762;1287;25077;-75
2023/04/02 11:55:44;;;;;;;3.20;3.00;;;;;;;4.94;100.00;98490.10;131818;1277;24243;-76
2023/04/02 11:58:47;;;;;;;3.00;2.80;;;;;;;4.97;100.00;98488.09;131871;1287;22505;-76
2023/04/02 12:01:50;;;;;;;2.90;2.80;;;;;;;5.05;100.00;98490.58;131778;1264;24246;-76
2023/04/02 12:04:52;;;;;;;3.80;3.20;;;;;;;5.11;100.00;98491.23;131679;1287;22601;-76
2023/04/02 12:07:56;;;;;;;4.30;3.90;;;;;;;5.10;100.00;98497.71;131688;1287;22555;-75
2023/04/02 12:10:59;;;;;;;4.30;4.00;;;;;;;5.07;100.00;98499.25;131686;1275;22545;-76
2023/04/02 12:14:02;;;;;;;4.00;3.70;;;;;;;5.01;100.00;98501.56;131660;1287;24173;-75
2023/04/02 12:17:06;;;;;;;3.80;3.50;;;;;;;5.02;100.00;98504.85;131688;1287;24262;-75
2023/04/02 12:20:09;;;;;;;4.40;4.10;;;;;;;5.03;100.00;98514.61;131666;1287;22495;-76
2023/04/02 12:23:12;;;;;;;3.50;3.30;;;;;;;5.07;100.00;98511.85;131714;1287;25283;-76
2023/04/02 12:26:17;;;;;;;4.90;4.50;;;;;;;5.03;100.00;98517.20;131728;1287;23928;-77
2023/04/02 12:29:19;;;;;;;5.20;4.30;;;;;;;4.98;100.00;98515.01;131651;1276;23456;-77
2023/04/02 12:32:22;;;;;;;6.30;5.70;;;;;;;4.85;100.00;98518.14;131729;1287;23281;-76
2023/04/02 12:35:25;;;;;;;5.00;4.60;;;;;;;4.74;100.00;98524.18;131760;1287;22566;-76
2023/04/02 12:38:28;;;;;;;5.90;5.40;;;;;;;4.68;100.00;98523.39;131641;1287;25292;-75
2023/04/02 12:41:32;;;;;;;6.00;5.50;;;;;;;4.68;100.00;98519.41;131848;1287;25416;-76
2023/04/02 12:44:35;;;;;;;6.40;5.80;;;;;;;4.71;100.00;98525.90;131805;1287;22545;-77
2023/04/02 12:47:38;;;;;;;6.40;5.90;;;;;;;4.73;100.00;98526.95;131825;1283;22603;-76
2023/04/02 12:50:42;;;;;;;5.70;5.20;;;;;;;4.68;100.00;98531.75;131718;1287;25489;-76
2023/04/02 12:53:45;;;;;;;6.20;5.60;;;;;;;4.62;100.00;98532.36;131839;1287;22780;-77
2023/04/02 12:56:48;;;;;;;6.10;5.60;;;;;;;4.50;100.00;98540.80;131740;1287;23902;-75
2023/04/02 12:59:51;;;;;;;6.80;6.10;;;;;;;4.39;100.00;98545.17;131810;1287;23025;-77
2023/04/02 13:02:54;;;;;;;5.10;4.70;;;;;;;4.35;100.00;98545.17;131819;1287;22537;-77
2023/04/02 13:05:57;;;;;;;6.00;5.40;;;;;;;4.38;100.00;98547.73;131706;1287;22568;-76
2023/04/02 13:09:00;;;;;;;5.00;4.60;;;;;;;4.41;100.00;98560.73;131950;1287;25292;-77
2023/04/02 13:12:03;;;;;;;5.10;4.70;;;;;;;4.42;100.00;98561.67;131860;1287;23893;-75
2023/04/02 13:15:06;;;;;;;4.00;3.70;;;;;;;4.43;100.00;98567.84;131655;1287;25416;-76
2023/04/02 13:18:09;;;;;;;5.50;5.00;;;;;;;4.42;100.00;98568.38;131737;1287;22664;-76
2023/04/02 13:21:15;;;;;;;5.50;5.00;;;;;;;4.42;100.00;98573.11;131669;1287;22548;-77
2023/04/02 13:24:18;;;;;;;6.10;5.50;;;;;;;4.43;100.00;98578.05;131720;1287;24279;-77
2023/04/02 13:27:21;;;;;;;7.40;4.80;;;;;;;4.43;100.00;98586.98;131779;1287;24240;-76
2023/04/02 13:30:23;;;;;;;5.00;4.60;;;;;;;4.41;100.00;98588.75;131646;1287;22880;-76
2023/04/02 13:33:26;;;;;;;5.40;5.00;;;;;;;4.38;100.00;98590.58;131703;1284;25303;-77
2023/04/02 13:36:29;;;;;;;8.60;7.30;;;;;;;4.39;100.00;98594.50;131791;1287;22560;-76
2023/04/02 13:39:32;;;;;;;7.60;6.90;;;;;;;4.37;100.00;98596.40;131844;1287;25411;-77
2023/04/02 13:42:35;;;;;;;8.70;7.80;;;;;;;4.31;100.00;98605.43;131788;1287;24222;-76
2023/04/02 13:45:38;;;;;;;8.60;7.70;;;;;;;4.22;100.00;98602.05;131699;1287;25404;-76
2023/04/02 13:48:41;;;;;;;6.20;5.70;;;;;;;4.18;100.00;98602.95;131659;1287;22540;-76
2023/04/02 13:51:44;;;;;;;7.70;6.90;;;;;;;4.13;100.00;98607.02;131714;1287;25377;-76
2023/04/02 13:54:48;;;;;;;9.00;8.10;;;;;;;4.11;100.00;98609.45;131678;1287;22570;-76
2023/04/02 13:57:51;;;;;;;7.10;6.50;;;;;;;4.10;100.00;98610.95;131654;1287;24222;-77
2023/04/02 14:00:54;;;;;;;6.30;5.80;;;;;;;4.10;100.00;98615.05;131678;1287;22652;-77
2023/04/02 14:03:57;;;;;;;6.90;6.20;;;;;;;4.14;100.00;98620.41;131669;1287;22807;-75